sensor_id;sensor_type;location;lat;lon;timestamp;P1;durP1;ratioP1;P2;durP2;ratioP2
62543;SDS011;48597;49.030;1.822;2023-08-21T00:00:13;1.23;;;0.65;;
62543;SDS011;48597;49.030;1.822;2023-08-21T00:02:39;1.55;;;0.70;;
62543;SDS011;48597;49.030;1.822;2023-08-21T00:05:05;2.00;;;0.88;;
62543;SDS011;48597;49.030;1.822;2023-08-21T00:07:31;1.10;;;0.70;;
62543;SDS011;48597;49.030;1.822;2023-08-21T00:09:56;2.17;;;0.98;;
62543;SDS011;48597;49.030;1.822;2023-08-21T00:12:22;1.38;;;0.75;;
62543;SDS011;48597;49.030;1.822;2023-08-21T00:14:47;1.48;;;0.80;;
62543;SDS011;48597;49.030;1.822;2023-08-21T00:17:12;1.35;;;0.80;;
62543;SDS011;48597;49.030;1.822;2023-08-21T00:19:38;1.55;;;0.73;;
62543;SDS011;48597;49.030;1.822;2023-08-21T00:22:03;1.05;;;0.70;;
62543;SDS011;48597;49.030;1.822;2023-08-21T00:24:29;1.35;;;0.63;;
62543;SDS011;48597;49.030;1.822;2023-08-21T00:26:54;1.25;;;0.85;;
62543;SDS011;48597;49.030;1.822;2023-08-21T00:29:20;1.20;;;0.75;;
62543;SDS011;48597;49.030;1.822;2023-08-21T00:31:45;1.70;;;0.70;;
62543;SDS011;48597;49.030;1.822;2023-08-21T00:34:11;0.55;;;0.50;;
62543;SDS011;48597;49.030;1.822;2023-08-21T00:36:36;1.73;;;0.80;;
62543;SDS011;48597;49.030;1.822;2023-08-21T00:39:01;1.35;;;0.88;;
62543;SDS011;48597;49.030;1.822;2023-08-21T00:41:27;1.00;;;0.60;;
62543;SDS011;48597;49.030;1.822;2023-08-21T00:43:52;2.38;;;0.82;;
62543;SDS011;48597;49.030;1.822;2023-08-21T00:46:17;1.85;;;0.70;;
62543;SDS011;48597;49.030;1.822;2023-08-21T00:48:43;0.98;;;0.70;;
62543;SDS011;48597;49.030;1.822;2023-08-21T00:51:09;2.20;;;0.70;;
62543;SDS011;48597;49.030;1.822;2023-08-21T00:53:36;3.47;;;0.80;;
62543;SDS011;48597;49.030;1.822;2023-08-21T00:56:02;2.00;;;0.90;;
62543;SDS011;48597;49.030;1.822;2023-08-21T00:58:28;1.67;;;0.70;;
62543;SDS011;48597;49.030;1.822;2023-08-21T01:00:54;1.90;;;0.90;;
62543;SDS011;48597;49.030;1.822;2023-08-21T01:03:20;1.80;;;0.75;;
62543;SDS011;48597;49.030;1.822;2023-08-21T01:05:46;1.63;;;0.82;;
62543;SDS011;48597;49.030;1.822;2023-08-21T01:08:17;1.27;;;0.80;;
62543;SDS011;48597;49.030;1.822;2023-08-21T01:10:56;1.77;;;0.70;;
62543;SDS011;48597;49.030;1.822;2023-08-21T01:16:24;1.92;;;0.68;;
62543;SDS011;48597;49.030;1.822;2023-08-21T01:18:50;2.45;;;0.75;;
62543;SDS011;48597;49.030;1.822;2023-08-21T01:21:18;2.28;;;0.80;;
62543;SDS011;48597;49.030;1.822;2023-08-21T01:23:44;1.77;;;0.70;;
62543;SDS011;48597;49.030;1.822;2023-08-21T01:26:09;1.15;;;0.70;;
62543;SDS011;48597;49.030;1.822;2023-08-21T01:28:35;1.10;;;0.60;;
62543;SDS011;48597;49.030;1.822;2023-08-21T01:31:08;1.63;;;0.80;;
62543;SDS011;48597;49.030;1.822;2023-08-21T01:33:57;2.25;;;0.90;;
62543;SDS011;48597;49.030;1.822;2023-08-21T01:36:33;1.30;;;0.70;;
62543;SDS011;48597;49.030;1.822;2023-08-21T01:38:59;1.70;;;0.77;;
62543;SDS011;48597;49.030;1.822;2023-08-21T01:41:25;3.05;;;0.98;;
62543;SDS011;48597;49.030;1.822;2023-08-21T01:43:50;1.92;;;0.75;;
62543;SDS011;48597;49.030;1.822;2023-08-21T01:46:16;3.60;;;0.98;;
62543;SDS011;48597;49.030;1.822;2023-08-21T01:48:42;2.55;;;0.90;;
62543;SDS011;48597;49.030;1.822;2023-08-21T01:51:08;1.70;;;0.77;;
62543;SDS011;48597;49.030;1.822;2023-08-21T01:53:33;2.47;;;0.90;;
62543;SDS011;48597;49.030;1.822;2023-08-21T01:55:58;1.70;;;0.73;;
62543;SDS011;48597;49.030;1.822;2023-08-21T01:58:24;1.58;;;0.80;;
62543;SDS011;48597;49.030;1.822;2023-08-21T02:00:49;2.28;;;1.05;;
62543;SDS011;48597;49.030;1.822;2023-08-21T02:03:14;1.90;;;0.90;;
62543;SDS011;48597;49.030;1.822;2023-08-21T02:05:40;1.23;;;0.80;;
62543;SDS011;48597;49.030;1.822;2023-08-21T02:08:06;1.85;;;0.93;;
62543;SDS011;48597;49.030;1.822;2023-08-21T02:10:32;1.60;;;0.82;;
62543;SDS011;48597;49.030;1.822;2023-08-21T02:12:57;1.85;;;0.93;;
62543;SDS011;48597;49.030;1.822;2023-08-21T02:15:23;2.28;;;0.73;;
62543;SDS011;48597;49.030;1.822;2023-08-21T02:17:48;2.00;;;0.88;;
62543;SDS011;48597;49.030;1.822;2023-08-21T02:20:13;2.10;;;0.65;;
62543;SDS011;48597;49.030;1.822;2023-08-21T02:22:39;1.02;;;0.60;;
62543;SDS011;48597;49.030;1.822;2023-08-21T02:25:04;2.40;;;0.90;;
62543;SDS011;48597;49.030;1.822;2023-08-21T02:27:30;1.73;;;0.80;;
62543;SDS011;48597;49.030;1.822;2023-08-21T02:29:55;1.92;;;0.80;;
62543;SDS011;48597;49.030;1.822;2023-08-21T02:32:21;2.55;;;0.80;;
62543;SDS011;48597;49.030;1.822;2023-08-21T02:34:46;1.42;;;0.60;;
62543;SDS011;48597;49.030;1.822;2023-08-21T02:37:12;1.90;;;0.65;;
62543;SDS011;48597;49.030;1.822;2023-08-21T02:39:37;1.58;;;0.70;;
62543;SDS011;48597;49.030;1.822;2023-08-21T02:42:03;2.70;;;0.80;;
62543;SDS011;48597;49.030;1.822;2023-08-21T02:44:28;2.10;;;0.80;;
62543;SDS011;48597;49.030;1.822;2023-08-21T02:46:54;1.13;;;0.70;;
62543;SDS011;48597;49.030;1.822;2023-08-21T02:49:19;1.80;;;0.70;;
62543;SDS011;48597;49.030;1.822;2023-08-21T02:51:44;1.95;;;0.70;;
62543;SDS011;48597;49.030;1.822;2023-08-21T02:54:10;1.60;;;0.90;;
62543;SDS011;48597;49.030;1.822;2023-08-21T02:56:36;1.50;;;0.70;;
62543;SDS011;48597;49.030;1.822;2023-08-21T02:59:01;1.73;;;0.80;;
62543;SDS011;48597;49.030;1.822;2023-08-21T03:01:27;1.50;;;0.90;;
62543;SDS011;48597;49.030;1.822;2023-08-21T03:03:53;2.15;;;0.93;;
62543;SDS011;48597;49.030;1.822;2023-08-21T03:06:18;1.85;;;0.82;;
62543;SDS011;48597;49.030;1.822;2023-08-21T03:08:43;1.83;;;0.98;;
62543;SDS011;48597;49.030;1.822;2023-08-21T03:11:09;3.15;;;0.80;;
62543;SDS011;48597;49.030;1.822;2023-08-21T03:13:34;1.67;;;0.70;;
62543;SDS011;48597;49.030;1.822;2023-08-21T03:16:00;2.20;;;0.70;;
62543;SDS011;48597;49.030;1.822;2023-08-21T03:18:29;2.13;;;1.00;;
62543;SDS011;48597;49.030;1.822;2023-08-21T03:20:56;3.10;;;0.75;;
62543;SDS011;48597;49.030;1.822;2023-08-21T03:23:21;1.77;;;1.00;;
62543;SDS011;48597;49.030;1.822;2023-08-21T03:25:47;3.30;;;0.80;;
62543;SDS011;48597;49.030;1.822;2023-08-21T03:28:12;2.90;;;0.95;;
62543;SDS011;48597;49.030;1.822;2023-08-21T03:30:40;1.92;;;0.90;;
62543;SDS011;48597;49.030;1.822;2023-08-21T03:33:06;1.50;;;0.80;;
62543;SDS011;48597;49.030;1.822;2023-08-21T03:35:33;1.58;;;0.85;;
62543;SDS011;48597;49.030;1.822;2023-08-21T03:37:58;2.40;;;0.85;;
62543;SDS011;48597;49.030;1.822;2023-08-21T03:40:23;1.80;;;0.90;;
62543;SDS011;48597;49.030;1.822;2023-08-21T03:42:49;1.05;;;0.80;;
62543;SDS011;48597;49.030;1.822;2023-08-21T03:45:14;2.00;;;0.90;;
62543;SDS011;48597;49.030;1.822;2023-08-21T03:47:40;1.73;;;0.70;;
62543;SDS011;48597;49.030;1.822;2023-08-21T03:50:05;1.90;;;0.82;;
62543;SDS011;48597;49.030;1.822;2023-08-21T03:52:31;1.08;;;0.52;;
62543;SDS011;48597;49.030;1.822;2023-08-21T03:54:56;0.90;;;0.80;;
62543;SDS011;48597;49.030;1.822;2023-08-21T03:57:22;1.60;;;0.80;;
62543;SDS011;48597;49.030;1.822;2023-08-21T03:59:47;3.13;;;1.00;;
62543;SDS011;48597;49.030;1.822;2023-08-21T04:02:12;2.17;;;0.80;;
62543;SDS011;48597;49.030;1.822;2023-08-21T04:04:38;3.55;;;0.80;;
62543;SDS011;48597;49.030;1.822;2023-08-21T04:07:03;2.30;;;0.80;;
62543;SDS011;48597;49.030;1.822;2023-08-21T04:09:28;2.55;;;0.70;;
62543;SDS011;48597;49.030;1.822;2023-08-21T04:11:54;1.13;;;0.60;;
62543;SDS011;48597;49.030;1.822;2023-08-21T04:14:19;1.63;;;0.70;;
62543;SDS011;48597;49.030;1.822;2023-08-21T04:16:44;1.63;;;0.90;;
62543;SDS011;48597;49.030;1.822;2023-08-21T04:19:10;2.38;;;0.75;;
62543;SDS011;48597;49.030;1.822;2023-08-21T04:21:35;1.67;;;0.80;;
62543;SDS011;48597;49.030;1.822;2023-08-21T04:24:01;1.10;;;0.70;;
62543;SDS011;48597;49.030;1.822;2023-08-21T04:26:26;1.20;;;0.60;;
62543;SDS011;48597;49.030;1.822;2023-08-21T04:28:51;2.13;;;0.90;;
62543;SDS011;48597;49.030;1.822;2023-08-21T04:31:17;1.55;;;0.70;;
62543;SDS011;48597;49.030;1.822;2023-08-21T04:33:42;1.17;;;0.77;;
62543;SDS011;48597;49.030;1.822;2023-08-21T04:36:07;2.40;;;0.80;;
62543;SDS011;48597;49.030;1.822;2023-08-21T04:38:38;1.85;;;0.80;;
62543;SDS011;48597;49.030;1.822;2023-08-21T04:41:07;1.33;;;0.60;;
62543;SDS011;48597;49.030;1.822;2023-08-21T04:43:33;1.10;;;0.70;;
62543;SDS011;48597;49.030;1.822;2023-08-21T04:45:58;2.22;;;0.75;;
62543;SDS011;48597;49.030;1.822;2023-08-21T04:48:24;0.90;;;0.65;;
62543;SDS011;48597;49.030;1.822;2023-08-21T04:50:49;1.65;;;0.80;;
62543;SDS011;48597;49.030;1.822;2023-08-21T04:53:15;1.55;;;0.80;;
62543;SDS011;48597;49.030;1.822;2023-08-21T04:55:40;1.15;;;0.80;;
62543;SDS011;48597;49.030;1.822;2023-08-21T04:58:06;1.27;;;0.73;;
62543;SDS011;48597;49.030;1.822;2023-08-21T05:00:32;2.03;;;0.73;;
62543;SDS011;48597;49.030;1.822;2023-08-21T05:02:58;1.70;;;0.70;;
62543;SDS011;48597;49.030;1.822;2023-08-21T05:05:23;2.42;;;0.93;;
62543;SDS011;48597;49.030;1.822;2023-08-21T05:07:49;1.20;;;0.82;;
62543;SDS011;48597;49.030;1.822;2023-08-21T05:10:14;2.33;;;0.70;;
62543;SDS011;48597;49.030;1.822;2023-08-21T05:12:40;1.30;;;0.70;;
62543;SDS011;48597;49.030;1.822;2023-08-21T05:15:06;1.63;;;0.88;;
62543;SDS011;48597;49.030;1.822;2023-08-21T05:17:32;4.50;;;0.90;;
62543;SDS011;48597;49.030;1.822;2023-08-21T05:19:57;1.80;;;0.80;;
62543;SDS011;48597;49.030;1.822;2023-08-21T05:22:22;1.30;;;0.70;;
62543;SDS011;48597;49.030;1.822;2023-08-21T05:24:48;1.63;;;0.70;;
62543;SDS011;48597;49.030;1.822;2023-08-21T05:27:13;1.73;;;0.85;;
62543;SDS011;48597;49.030;1.822;2023-08-21T05:29:38;1.35;;;0.93;;
62543;SDS011;48597;49.030;1.822;2023-08-21T05:32:07;2.08;;;0.77;;
62543;SDS011;48597;49.030;1.822;2023-08-21T05:34:33;2.33;;;0.80;;
62543;SDS011;48597;49.030;1.822;2023-08-21T05:36:58;2.15;;;0.90;;
62543;SDS011;48597;49.030;1.822;2023-08-21T05:39:24;1.85;;;0.80;;
62543;SDS011;48597;49.030;1.822;2023-08-21T05:41:49;1.25;;;0.80;;
62543;SDS011;48597;49.030;1.822;2023-08-21T05:44:14;1.85;;;0.77;;
62543;SDS011;48597;49.030;1.822;2023-08-21T05:46:40;0.82;;;0.70;;
62543;SDS011;48597;49.030;1.822;2023-08-21T05:49:05;1.83;;;0.80;;
62543;SDS011;48597;49.030;1.822;2023-08-21T05:51:31;2.55;;;1.25;;
62543;SDS011;48597;49.030;1.822;2023-08-21T05:53:56;1.92;;;0.90;;
62543;SDS011;48597;49.030;1.822;2023-08-21T05:56:22;1.65;;;0.82;;
62543;SDS011;48597;49.030;1.822;2023-08-21T05:58:48;4.20;;;0.95;;
62543;SDS011;48597;49.030;1.822;2023-08-21T06:01:13;2.40;;;0.90;;
62543;SDS011;48597;49.030;1.822;2023-08-21T06:03:38;1.58;;;0.90;;
62543;SDS011;48597;49.030;1.822;2023-08-21T06:06:04;2.50;;;1.00;;
62543;SDS011;48597;49.030;1.822;2023-08-21T06:08:30;3.05;;;1.00;;
62543;SDS011;48597;49.030;1.822;2023-08-21T06:10:55;3.35;;;1.00;;
62543;SDS011;48597;49.030;1.822;2023-08-21T06:13:21;3.22;;;1.17;;
62543;SDS011;48597;49.030;1.822;2023-08-21T06:15:46;1.55;;;0.77;;
62543;SDS011;48597;49.030;1.822;2023-08-21T06:18:11;2.05;;;0.95;;
62543;SDS011;48597;49.030;1.822;2023-08-21T06:20:37;2.47;;;0.90;;
62543;SDS011;48597;49.030;1.822;2023-08-21T06:23:02;1.42;;;0.75;;
62543;SDS011;48597;49.030;1.822;2023-08-21T06:25:28;2.20;;;0.80;;
62543;SDS011;48597;49.030;1.822;2023-08-21T06:27:55;2.00;;;1.00;;
62543;SDS011;48597;49.030;1.822;2023-08-21T06:30:21;1.30;;;0.93;;
62543;SDS011;48597;49.030;1.822;2023-08-21T06:32:46;1.98;;;0.90;;
62543;SDS011;48597;49.030;1.822;2023-08-21T06:35:11;1.67;;;0.90;;
62543;SDS011;48597;49.030;1.822;2023-08-21T06:37:37;1.38;;;0.88;;
62543;SDS011;48597;49.030;1.822;2023-08-21T06:40:02;1.23;;;0.70;;
62543;SDS011;48597;49.030;1.822;2023-08-21T06:42:28;0.80;;;0.70;;
62543;SDS011;48597;49.030;1.822;2023-08-21T06:44:53;0.88;;;0.70;;
62543;SDS011;48597;49.030;1.822;2023-08-21T06:47:19;4.30;;;0.90;;
62543;SDS011;48597;49.030;1.822;2023-08-21T06:49:44;2.33;;;0.73;;
62543;SDS011;48597;49.030;1.822;2023-08-21T06:52:09;1.75;;;0.60;;
62543;SDS011;48597;49.030;1.822;2023-08-21T06:54:35;1.70;;;0.80;;
62543;SDS011;48597;49.030;1.822;2023-08-21T06:57:00;1.42;;;0.90;;
62543;SDS011;48597;49.030;1.822;2023-08-21T06:59:25;1.98;;;0.68;;
62543;SDS011;48597;49.030;1.822;2023-08-21T07:01:51;2.10;;;0.90;;
62543;SDS011;48597;49.030;1.822;2023-08-21T07:04:16;2.22;;;0.80;;
62543;SDS011;48597;49.030;1.822;2023-08-21T07:06:42;0.82;;;0.60;;
62543;SDS011;48597;49.030;1.822;2023-08-21T07:09:07;1.77;;;0.70;;
62543;SDS011;48597;49.030;1.822;2023-08-21T07:11:32;2.63;;;0.73;;
62543;SDS011;48597;49.030;1.822;2023-08-21T07:13:58;1.65;;;0.80;;
62543;SDS011;48597;49.030;1.822;2023-08-21T07:16:23;1.70;;;0.70;;
62543;SDS011;48597;49.030;1.822;2023-08-21T07:18:51;1.42;;;0.60;;
62543;SDS011;48597;49.030;1.822;2023-08-21T07:21:16;1.15;;;0.80;;
62543;SDS011;48597;49.030;1.822;2023-08-21T07:23:42;2.00;;;0.90;;
62543;SDS011;48597;49.030;1.822;2023-08-21T07:26:07;1.55;;;0.60;;
62543;SDS011;48597;49.030;1.822;2023-08-21T07:28:33;4.32;;;0.65;;
62543;SDS011;48597;49.030;1.822;2023-08-21T07:30:59;1.67;;;0.70;;
62543;SDS011;48597;49.030;1.822;2023-08-21T07:33:25;2.70;;;0.77;;
62543;SDS011;48597;49.030;1.822;2023-08-21T07:36:01;1.00;;;0.60;;
62543;SDS011;48597;49.030;1.822;2023-08-21T07:38:28;1.42;;;0.70;;
62543;SDS011;48597;49.030;1.822;2023-08-21T07:41:09;0.80;;;0.60;;
62543;SDS011;48597;49.030;1.822;2023-08-21T07:43:44;1.65;;;0.70;;
62543;SDS011;48597;49.030;1.822;2023-08-21T07:46:12;3.85;;;1.02;;
62543;SDS011;48597;49.030;1.822;2023-08-21T07:48:47;3.28;;;0.70;;
62543;SDS011;48597;49.030;1.822;2023-08-21T07:51:12;3.08;;;0.70;;
62543;SDS011;48597;49.030;1.822;2023-08-21T07:53:38;1.95;;;0.65;;
62543;SDS011;48597;49.030;1.822;2023-08-21T07:56:03;2.25;;;0.52;;
62543;SDS011;48597;49.030;1.822;2023-08-21T07:58:29;1.05;;;0.55;;
62543;SDS011;48597;49.030;1.822;2023-08-21T08:00:55;2.30;;;0.68;;
62543;SDS011;48597;49.030;1.822;2023-08-21T08:03:21;2.72;;;0.70;;
62543;SDS011;48597;49.030;1.822;2023-08-21T08:05:46;2.22;;;0.88;;
62543;SDS011;48597;49.030;1.822;2023-08-21T08:08:11;2.85;;;0.70;;
62543;SDS011;48597;49.030;1.822;2023-08-21T08:10:40;1.52;;;0.70;;
62543;SDS011;48597;49.030;1.822;2023-08-21T08:13:06;1.20;;;0.68;;
62543;SDS011;48597;49.030;1.822;2023-08-21T08:15:32;1.90;;;0.68;;
62543;SDS011;48597;49.030;1.822;2023-08-21T08:17:59;3.75;;;0.80;;
62543;SDS011;48597;49.030;1.822;2023-08-21T08:20:25;4.63;;;0.90;;
62543;SDS011;48597;49.030;1.822;2023-08-21T08:22:51;3.55;;;1.10;;
62543;SDS011;48597;49.030;1.822;2023-08-21T08:25:16;7.10;;;1.27;;
62543;SDS011;48597;49.030;1.822;2023-08-21T08:27:42;6.68;;;1.38;;
62543;SDS011;48597;49.030;1.822;2023-08-21T08:30:08;4.90;;;1.08;;
62543;SDS011;48597;49.030;1.822;2023-08-21T08:32:34;6.03;;;1.23;;
62543;SDS011;48597;49.030;1.822;2023-08-21T08:34:59;9.02;;;1.40;;
62543;SDS011;48597;49.030;1.822;2023-08-21T08:37:25;9.18;;;1.60;;
62543;SDS011;48597;49.030;1.822;2023-08-21T08:39:50;6.13;;;1.17;;
62543;SDS011;48597;49.030;1.822;2023-08-21T08:42:16;5.68;;;1.10;;
62543;SDS011;48597;49.030;1.822;2023-08-21T08:44:42;9.73;;;1.80;;
62543;SDS011;48597;49.030;1.822;2023-08-21T08:47:08;5.82;;;1.30;;
62543;SDS011;48597;49.030;1.822;2023-08-21T08:49:35;7.68;;;1.38;;
62543;SDS011;48597;49.030;1.822;2023-08-21T08:52:02;7.68;;;1.30;;
62543;SDS011;48597;49.030;1.822;2023-08-21T08:54:28;9.20;;;1.45;;
62543;SDS011;48597;49.030;1.822;2023-08-21T08:56:56;7.32;;;1.33;;
62543;SDS011;48597;49.030;1.822;2023-08-21T08:59:21;10.77;;;1.67;;
62543;SDS011;48597;49.030;1.822;2023-08-21T09:01:47;8.77;;;1.40;;
62543;SDS011;48597;49.030;1.822;2023-08-21T09:04:13;4.25;;;1.00;;
62543;SDS011;48597;49.030;1.822;2023-08-21T09:06:38;7.32;;;1.52;;
62543;SDS011;48597;49.030;1.822;2023-08-21T09:09:04;5.22;;;1.30;;
62543;SDS011;48597;49.030;1.822;2023-08-21T09:11:29;3.47;;;1.30;;
62543;SDS011;48597;49.030;1.822;2023-08-21T09:13:55;8.07;;;1.20;;
62543;SDS011;48597;49.030;1.822;2023-08-21T09:16:21;3.47;;;0.98;;
62543;SDS011;48597;49.030;1.822;2023-08-21T09:18:48;4.75;;;1.38;;
62543;SDS011;48597;49.030;1.822;2023-08-21T09:21:17;4.85;;;1.02;;
62543;SDS011;48597;49.030;1.822;2023-08-21T09:23:44;3.73;;;1.10;;
62543;SDS011;48597;49.030;1.822;2023-08-21T09:26:11;2.78;;;1.00;;
62543;SDS011;48597;49.030;1.822;2023-08-21T09:28:46;5.85;;;1.35;;
62543;SDS011;48597;49.030;1.822;2023-08-21T09:31:13;4.55;;;1.20;;
62543;SDS011;48597;49.030;1.822;2023-08-21T09:33:38;7.10;;;1.60;;
62543;SDS011;48597;49.030;1.822;2023-08-21T09:36:04;3.15;;;1.17;;
62543;SDS011;48597;49.030;1.822;2023-08-21T09:38:36;4.57;;;0.80;;
62543;SDS011;48597;49.030;1.822;2023-08-21T09:41:03;5.78;;;1.00;;
62543;SDS011;48597;49.030;1.822;2023-08-21T09:43:29;5.28;;;1.23;;
62543;SDS011;48597;49.030;1.822;2023-08-21T09:45:54;4.20;;;0.95;;
62543;SDS011;48597;49.030;1.822;2023-08-21T09:48:24;3.63;;;1.20;;
62543;SDS011;48597;49.030;1.822;2023-08-21T09:50:54;2.25;;;1.00;;
62543;SDS011;48597;49.030;1.822;2023-08-21T09:53:21;4.63;;;0.98;;
62543;SDS011;48597;49.030;1.822;2023-08-21T09:55:53;3.85;;;0.90;;
62543;SDS011;48597;49.030;1.822;2023-08-21T09:58:20;4.28;;;1.23;;
62543;SDS011;48597;49.030;1.822;2023-08-21T10:00:47;4.85;;;0.90;;
62543;SDS011;48597;49.030;1.822;2023-08-21T10:03:15;5.22;;;1.38;;
62543;SDS011;48597;49.030;1.822;2023-08-21T10:05:44;3.38;;;0.90;;
62543;SDS011;48597;49.030;1.822;2023-08-21T10:08:12;4.35;;;1.00;;
62543;SDS011;48597;49.030;1.822;2023-08-21T10:10:40;5.55;;;1.25;;
62543;SDS011;48597;49.030;1.822;2023-08-21T10:13:06;2.50;;;0.70;;
62543;SDS011;48597;49.030;1.822;2023-08-21T10:15:33;2.67;;;0.70;;
62543;SDS011;48597;49.030;1.822;2023-08-21T10:20:46;4.72;;;1.00;;
62543;SDS011;48597;49.030;1.822;2023-08-21T10:23:23;6.57;;;0.90;;
62543;SDS011;48597;49.030;1.822;2023-08-21T10:25:57;4.00;;;1.00;;
62543;SDS011;48597;49.030;1.822;2023-08-21T10:28:24;3.55;;;0.90;;
62543;SDS011;48597;49.030;1.822;2023-08-21T10:30:49;3.10;;;0.80;;
62543;SDS011;48597;49.030;1.822;2023-08-21T10:33:15;8.60;;;1.45;;
62543;SDS011;48597;49.030;1.822;2023-08-21T10:35:40;7.63;;;1.27;;
62543;SDS011;48597;49.030;1.822;2023-08-21T10:40:34;4.75;;;0.82;;
62543;SDS011;48597;49.030;1.822;2023-08-21T10:43:00;4.30;;;0.93;;
62543;SDS011;48597;49.030;1.822;2023-08-21T10:45:27;3.17;;;0.73;;
62543;SDS011;48597;49.030;1.822;2023-08-21T10:47:52;3.70;;;1.13;;
62543;SDS011;48597;49.030;1.822;2023-08-21T10:50:20;4.95;;;1.00;;
62543;SDS011;48597;49.030;1.822;2023-08-21T10:52:46;2.53;;;0.88;;
62543;SDS011;48597;49.030;1.822;2023-08-21T10:55:15;5.75;;;0.90;;
62543;SDS011;48597;49.030;1.822;2023-08-21T10:57:41;5.25;;;1.08;;
62543;SDS011;48597;49.030;1.822;2023-08-21T11:00:10;5.07;;;1.00;;
62543;SDS011;48597;49.030;1.822;2023-08-21T11:02:38;3.58;;;0.90;;
62543;SDS011;48597;49.030;1.822;2023-08-21T11:05:06;3.33;;;0.95;;
62543;SDS011;48597;49.030;1.822;2023-08-21T11:07:40;2.00;;;1.00;;
62543;SDS011;48597;49.030;1.822;2023-08-21T11:10:21;3.08;;;0.80;;
62543;SDS011;48597;49.030;1.822;2023-08-21T11:12:48;7.60;;;0.95;;
62543;SDS011;48597;49.030;1.822;2023-08-21T11:15:16;2.95;;;0.80;;
62543;SDS011;48597;49.030;1.822;2023-08-21T11:17:42;2.80;;;0.75;;
62543;SDS011;48597;49.030;1.822;2023-08-21T11:20:15;4.25;;;0.80;;
62543;SDS011;48597;49.030;1.822;2023-08-21T11:22:40;7.25;;;1.13;;
62543;SDS011;48597;49.030;1.822;2023-08-21T11:25:06;5.25;;;0.88;;
62543;SDS011;48597;49.030;1.822;2023-08-21T11:27:31;3.47;;;0.98;;
62543;SDS011;48597;49.030;1.822;2023-08-21T11:29:57;5.15;;;1.02;;
62543;SDS011;48597;49.030;1.822;2023-08-21T11:32:23;2.65;;;1.00;;
62543;SDS011;48597;49.030;1.822;2023-08-21T11:34:52;7.30;;;1.15;;
62543;SDS011;48597;49.030;1.822;2023-08-21T11:37:25;3.35;;;0.90;;
62543;SDS011;48597;49.030;1.822;2023-08-21T11:39:53;6.60;;;1.25;;
62543;SDS011;48597;49.030;1.822;2023-08-21T11:42:21;6.43;;;0.90;;
62543;SDS011;48597;49.030;1.822;2023-08-21T11:44:53;8.43;;;1.00;;
62543;SDS011;48597;49.030;1.822;2023-08-21T11:47:19;3.90;;;0.82;;
62543;SDS011;48597;49.030;1.822;2023-08-21T11:49:46;6.10;;;0.90;;
62543;SDS011;48597;49.030;1.822;2023-08-21T11:52:14;3.47;;;0.60;;
62543;SDS011;48597;49.030;1.822;2023-08-21T11:54:47;1.92;;;0.70;;
62543;SDS011;48597;49.030;1.822;2023-08-21T11:57:14;4.95;;;1.13;;
62543;SDS011;48597;49.030;1.822;2023-08-21T11:59:40;3.35;;;0.85;;
62543;SDS011;48597;49.030;1.822;2023-08-21T12:02:16;4.15;;;1.00;;
62543;SDS011;48597;49.030;1.822;2023-08-21T12:04:43;5.00;;;1.30;;
62543;SDS011;48597;49.030;1.822;2023-08-21T12:07:09;3.63;;;1.05;;
62543;SDS011;48597;49.030;1.822;2023-08-21T12:09:34;5.35;;;1.20;;
62543;SDS011;48597;49.030;1.822;2023-08-21T12:12:00;5.43;;;1.08;;
62543;SDS011;48597;49.030;1.822;2023-08-21T12:14:26;3.70;;;0.95;;
62543;SDS011;48597;49.030;1.822;2023-08-21T12:16:53;4.75;;;0.98;;
62543;SDS011;48597;49.030;1.822;2023-08-21T12:19:19;4.05;;;1.02;;
62543;SDS011;48597;49.030;1.822;2023-08-21T12:21:44;5.50;;;1.10;;
62543;SDS011;48597;49.030;1.822;2023-08-21T12:24:10;4.70;;;1.02;;
62543;SDS011;48597;49.030;1.822;2023-08-21T12:26:35;6.38;;;1.15;;
62543;SDS011;48597;49.030;1.822;2023-08-21T12:29:01;5.43;;;1.08;;
62543;SDS011;48597;49.030;1.822;2023-08-21T12:31:27;4.75;;;1.00;;
62543;SDS011;48597;49.030;1.822;2023-08-21T12:33:53;3.75;;;0.98;;
62543;SDS011;48597;49.030;1.822;2023-08-21T12:36:18;9.00;;;1.20;;
62543;SDS011;48597;49.030;1.822;2023-08-21T12:38:44;7.50;;;0.90;;
62543;SDS011;48597;49.030;1.822;2023-08-21T12:41:10;4.50;;;0.88;;
62543;SDS011;48597;49.030;1.822;2023-08-21T12:43:35;3.03;;;0.73;;
62543;SDS011;48597;49.030;1.822;2023-08-21T12:46:00;4.18;;;0.88;;
62543;SDS011;48597;49.030;1.822;2023-08-21T12:48:26;3.10;;;0.95;;
62543;SDS011;48597;49.030;1.822;2023-08-21T12:50:51;4.60;;;1.00;;
62543;SDS011;48597;49.030;1.822;2023-08-21T12:53:17;3.17;;;0.85;;
62543;SDS011;48597;49.030;1.822;2023-08-21T12:55:43;8.25;;;1.77;;
62543;SDS011;48597;49.030;1.822;2023-08-21T12:58:09;9.63;;;2.45;;
62543;SDS011;48597;49.030;1.822;2023-08-21T13:00:35;8.32;;;2.33;;
62543;SDS011;48597;49.030;1.822;2023-08-21T13:03:00;6.50;;;1.83;;
62543;SDS011;48597;49.030;1.822;2023-08-21T13:05:26;8.68;;;2.15;;
62543;SDS011;48597;49.030;1.822;2023-08-21T13:07:51;8.98;;;1.60;;
62543;SDS011;48597;49.030;1.822;2023-08-21T13:10:20;5.50;;;1.60;;
62543;SDS011;48597;49.030;1.822;2023-08-21T13:12:46;6.13;;;1.50;;
62543;SDS011;48597;49.030;1.822;2023-08-21T13:15:11;6.68;;;1.33;;
62543;SDS011;48597;49.030;1.822;2023-08-21T13:17:36;5.95;;;1.58;;
62543;SDS011;48597;49.030;1.822;2023-08-21T13:20:02;7.05;;;1.50;;
62543;SDS011;48597;49.030;1.822;2023-08-21T13:22:28;3.28;;;0.93;;
62543;SDS011;48597;49.030;1.822;2023-08-21T13:25:09;3.50;;;1.30;;
62543;SDS011;48597;49.030;1.822;2023-08-21T13:27:34;2.53;;;1.00;;
62543;SDS011;48597;49.030;1.822;2023-08-21T13:30:00;3.17;;;0.95;;
62543;SDS011;48597;49.030;1.822;2023-08-21T13:32:25;3.15;;;1.10;;
62543;SDS011;48597;49.030;1.822;2023-08-21T13:34:51;4.13;;;1.30;;
62543;SDS011;48597;49.030;1.822;2023-08-21T13:37:16;3.40;;;1.00;;
62543;SDS011;48597;49.030;1.822;2023-08-21T13:39:41;5.18;;;1.30;;
62543;SDS011;48597;49.030;1.822;2023-08-21T13:42:07;2.08;;;1.00;;
62543;SDS011;48597;49.030;1.822;2023-08-21T13:44:33;5.53;;;1.20;;
62543;SDS011;48597;49.030;1.822;2023-08-21T13:46:58;3.53;;;1.13;;
62543;SDS011;48597;49.030;1.822;2023-08-21T13:49:24;2.78;;;1.00;;
62543;SDS011;48597;49.030;1.822;2023-08-21T13:51:50;1.95;;;0.85;;
62543;SDS011;48597;49.030;1.822;2023-08-21T13:54:15;2.55;;;1.10;;
62543;SDS011;48597;49.030;1.822;2023-08-21T13:56:41;4.78;;;1.00;;
62543;SDS011;48597;49.030;1.822;2023-08-21T13:59:06;1.70;;;0.95;;
62543;SDS011;48597;49.030;1.822;2023-08-21T14:01:32;2.00;;;0.95;;
62543;SDS011;48597;49.030;1.822;2023-08-21T14:03:57;1.95;;;0.98;;
62543;SDS011;48597;49.030;1.822;2023-08-21T14:06:22;2.28;;;1.00;;
62543;SDS011;48597;49.030;1.822;2023-08-21T14:08:49;2.88;;;1.10;;
62543;SDS011;48597;49.030;1.822;2023-08-21T14:11:14;2.22;;;0.90;;
62543;SDS011;48597;49.030;1.822;2023-08-21T14:13:40;1.88;;;0.80;;
62543;SDS011;48597;49.030;1.822;2023-08-21T14:16:05;2.33;;;0.75;;
62543;SDS011;48597;49.030;1.822;2023-08-21T14:18:30;4.07;;;1.00;;
62543;SDS011;48597;49.030;1.822;2023-08-21T14:20:56;3.30;;;0.80;;
62543;SDS011;48597;49.030;1.822;2023-08-21T14:23:21;1.95;;;1.00;;
62543;SDS011;48597;49.030;1.822;2023-08-21T14:25:47;2.42;;;0.90;;
62543;SDS011;48597;49.030;1.822;2023-08-21T14:28:12;1.55;;;0.77;;
62543;SDS011;48597;49.030;1.822;2023-08-21T14:30:38;2.08;;;0.90;;
62543;SDS011;48597;49.030;1.822;2023-08-21T14:33:03;2.88;;;0.80;;
62543;SDS011;48597;49.030;1.822;2023-08-21T14:35:29;1.48;;;0.80;;
62543;SDS011;48597;49.030;1.822;2023-08-21T14:37:54;1.95;;;0.82;;
62543;SDS011;48597;49.030;1.822;2023-08-21T14:40:19;2.38;;;0.90;;
62543;SDS011;48597;49.030;1.822;2023-08-21T14:42:45;2.33;;;1.08;;
62543;SDS011;48597;49.030;1.822;2023-08-21T14:45:10;1.95;;;1.20;;
62543;SDS011;48597;49.030;1.822;2023-08-21T14:47:36;2.30;;;0.80;;
62543;SDS011;48597;49.030;1.822;2023-08-21T14:50:02;1.60;;;0.80;;